Time;durP1;ratioP1;P1;durP2;ratioP2;P2;SDS_P1;SDS_P2;PMS_P1;PMS_P2;Temp;Humidity;BMP_temperature;BMP_pressure;BME280_temperature;BME280_humidity;BME280_pressure;Samples;Min_cycle;Max_cycle;Signal;HPM_P1;HPM_P2
2022/01/17 00:00:21;;;;;;;0.00;0.00;;;;;;;;;;1724652;28;20536;-71
2022/01/17 00:01:14;;;;;;;0.00;0.00;;;;;;;;;;1718286;28;20225;-71
2022/01/17 00:02:05;;;;;;;0.00;0.00;;;;;;;;;;1718461;28;20205;-71
2022/01/17 00:02:59;;;;;;;0.00;0.00;;;;;;;;;;1719111;28;20205;-71
2022/01/17 00:03:53;;;;;;;0.00;0.00;;;;;;;;;;1718561;28;20312;-71
2022/01/17 00:04:45;;;;;;;0.00;0.00;;;;;;;;;;1719084;28;20208;-71
2022/01/17 00:05:36;;;;;;;0.00;0.00;;;;;;;;;;1717008;28;20236;-71
2022/01/17 00:06:28;;;;;;;0.10;0.10;;;;;;;;;;1719507;28;20235;-71
2022/01/17 00:07:20;;;;;;;0.00;0.00;;;;;;;;;;1718873;28;20205;-71
2022/01/17 00:08:12;;;;;;;0.00;0.00;;;;;;;;;;1720956;28;20209;-71
2022/01/17 00:09:03;;;;;;;0.00;0.00;;;;;;;;;;1718952;28;20212;-71
2022/01/17 00:09:56;;;;;;;0.08;0.08;;;;;;;;;;1718820;28;20543;-71
2022/01/17 00:10:47;;;;;;;0.00;0.00;;;;;;;;;;1716279;28;20245;-71
2022/01/17 00:11:44;;;;;;;0.00;0.00;;;;;;;;;;1719117;28;20197;-71
2022/01/17 00:12:38;;;;;;;0.00;0.00;;;;;;;;;;1718602;28;20228;-71
2022/01/17 00:13:30;;;;;;;0.00;0.00;;;;;;;;;;1719725;28;20647;-71
2022/01/17 00:14:28;;;;;;;0.10;0.10;;;;;;;;;;1718787;28;20217;-71
2022/01/17 00:15:28;;;;;;;0.00;0.00;;;;;;;;;;1718114;28;20197;-71
2022/01/17 00:16:24;;;;;;;0.10;0.10;;;;;;;;;;1717989;28;20316;-71
2022/01/17 00:17:29;;;;;;;0.10;0.10;;;;;;;;;;1718877;28;20642;-71
2022/01/17 00:18:28;;;;;;;0.00;0.00;;;;;;;;;;1719214;28;20285;-71
2022/01/17 00:20:36;;;;;;;0.00;0.00;;;;;;;;;;1716633;28;20327;-71
2022/01/17 00:21:27;;;;;;;0.00;0.00;;;;;;;;;;1719272;28;20535;-71
2022/01/17 00:22:20;;;;;;;0.03;0.03;;;;;;;;;;1717926;28;20217;-71
2022/01/17 00:23:11;;;;;;;0.10;0.10;;;;;;;;;;1718809;28;20208;-71
2022/01/17 00:24:03;;;;;;;0.00;0.00;;;;;;;;;;1718937;28;20235;-71
2022/01/17 00:24:54;;;;;;;0.00;0.00;;;;;;;;;;1719054;28;20584;-71
2022/01/17 00:25:47;;;;;;;0.00;0.00;;;;;;;;;;1716856;28;20232;-72
2022/01/17 00:26:38;;;;;;;0.00;0.00;;;;;;;;;;1719282;28;20263;-72
2022/01/17 00:27:31;;;;;;;0.10;0.10;;;;;;;;;;1718747;28;20643;-72
2022/01/17 00:28:22;;;;;;;0.00;0.00;;;;;;;;;;1718593;28;20213;-72
2022/01/17 00:29:14;;;;;;;0.00;0.00;;;;;;;;;;1717873;28;20205;-72
2022/01/17 00:30:09;;;;;;;0.00;0.00;;;;;;;;;;1717486;28;20271;-72
2022/01/17 00:31:05;;;;;;;0.00;0.00;;;;;;;;;;1716566;28;20571;-72
2022/01/17 00:31:57;;;;;;;0.00;0.00;;;;;;;;;;1719158;28;20193;-72
2022/01/17 00:32:48;;;;;;;0.00;0.00;;;;;;;;;;1718428;28;20205;-72
2022/01/17 00:33:40;;;;;;;0.00;0.00;;;;;;;;;;1718987;28;20324;-72
2022/01/17 00:34:32;;;;;;;0.00;0.00;;;;;;;;;;1717461;28;20232;-72
2022/01/17 00:35:24;;;;;;;0.10;0.10;;;;;;;;;;1716767;28;20586;-72
2022/01/17 00:36:16;;;;;;;0.00;0.00;;;;;;;;;;1719181;28;20861;-72
2022/01/17 00:37:08;;;;;;;0.00;0.00;;;;;;;;;;1719096;28;20533;-71
2022/01/17 00:37:59;;;;;;;0.00;0.00;;;;;;;;;;1719640;28;20208;-71
2022/01/17 00:38:51;;;;;;;0.00;0.00;;;;;;;;;;1718963;28;20239;-71
2022/01/17 00:39:42;;;;;;;0.00;0.00;;;;;;;;;;1718577;28;20270;-71
2022/01/17 00:40:35;;;;;;;0.10;0.10;;;;;;;;;;1716268;28;20737;-72
2022/01/17 00:41:27;;;;;;;0.00;0.00;;;;;;;;;;1718802;28;20204;-72
2022/01/17 00:42:19;;;;;;;0.00;0.00;;;;;;;;;;1718644;28;20216;-72
2022/01/17 00:43:11;;;;;;;0.20;0.20;;;;;;;;;;1719272;28;20208;-72
2022/01/17 00:44:04;;;;;;;0.00;0.00;;;;;;;;;;1718652;28;20264;-72
2022/01/17 00:44:55;;;;;;;0.00;0.00;;;;;;;;;;1717737;28;20707;-72
2022/01/17 00:45:47;;;;;;;0.00;0.00;;;;;;;;;;1716444;28;20236;-72
2022/01/17 00:46:40;;;;;;;0.00;0.00;;;;;;;;;;1718604;28;20205;-72
2022/01/17 00:47:32;;;;;;;0.00;0.00;;;;;;;;;;1718454;28;20215;-72
2022/01/17 00:48:23;;;;;;;0.00;0.00;;;;;;;;;;1719177;28;20220;-72
2022/01/17 00:49:15;;;;;;;0.10;0.10;;;;;;;;;;1718613;28;20232;-72
2022/01/17 00:50:07;;;;;;;0.00;0.00;;;;;;;;;;1718814;28;20306;-72
2022/01/17 00:51:00;;;;;;;0.10;0.10;;;;;;;;;;1716949;28;20788;-72
2022/01/17 00:51:51;;;;;;;0.00;0.00;;;;;;;;;;1718982;28;20219;-71
2022/01/17 00:52:43;;;;;;;0.00;0.00;;;;;;;;;;1717733;28;20232;-71
2022/01/17 00:53:37;;;;;;;0.00;0.00;;;;;;;;;;1718471;28;20208;-71
2022/01/17 00:54:31;;;;;;;0.00;0.00;;;;;;;;;;1718699;28;20236;-71
2022/01/17 00:55:22;;;;;;;0.00;0.00;;;;;;;;;;1717262;28;20251;-72
2022/01/17 00:56:15;;;;;;;0.00;0.00;;;;;;;;;;1718301;28;20645;-72
2022/01/17 00:57:06;;;;;;;0.00;0.00;;;;;;;;;;1718790;28;20278;-72
2022/01/17 00:57:59;;;;;;;0.00;0.00;;;;;;;;;;1719171;28;20840;-72
2022/01/17 00:58:51;;;;;;;0.00;0.00;;;;;;;;;;1717753;28;20209;-72
2022/01/17 00:59:43;;;;;;;0.10;0.10;;;;;;;;;;1718627;28;20232;-72
2022/01/17 01:00:34;;;;;;;0.00;0.00;;;;;;;;;;1715843;28;20686;-72
2022/01/17 01:01:26;;;;;;;0.00;0.00;;;;;;;;;;1718822;28;20303;-72
2022/01/17 01:02:20;;;;;;;0.00;0.00;;;;;;;;;;1718238;28;20223;-72
2022/01/17 01:03:12;;;;;;;0.10;0.10;;;;;;;;;;1719257;28;20539;-72
2022/01/17 01:04:03;;;;;;;0.00;0.00;;;;;;;;;;1718538;28;20209;-72
2022/01/17 01:04:56;;;;;;;0.00;0.00;;;;;;;;;;1718075;28;20212;-72
2022/01/17 01:05:47;;;;;;;0.00;0.00;;;;;;;;;;1716577;28;20245;-72
2022/01/17 01:06:39;;;;;;;0.10;0.10;;;;;;;;;;1718771;28;20205;-72
2022/01/17 01:07:30;;;;;;;0.10;0.10;;;;;;;;;;1718581;28;20300;-72
2022/01/17 01:08:22;;;;;;;0.00;0.00;;;;;;;;;;1719290;28;20263;-72
2022/01/17 01:09:14;;;;;;;0.00;0.00;;;;;;;;;;1718386;28;20364;-72
2022/01/17 01:10:10;;;;;;;0.00;0.00;;;;;;;;;;1717284;28;20304;-72
2022/01/17 01:11:01;;;;;;;0.10;0.10;;;;;;;;;;1715224;28;20240;-72
2022/01/17 01:11:53;;;;;;;0.10;0.10;;;;;;;;;;1718633;28;20212;-72
2022/01/17 01:12:46;;;;;;;0.00;0.00;;;;;;;;;;1718566;28;20550;-72
2022/01/17 01:13:38;;;;;;;0.00;0.00;;;;;;;;;;1719035;28;20197;-72
2022/01/17 01:14:30;;;;;;;0.10;0.10;;;;;;;;;;1718551;28;20635;-72
2022/01/17 01:15:33;;;;;;;0.10;0.10;;;;;;;;;;1716708;28;20240;-72
2022/01/17 01:16:32;;;;;;;0.00;0.00;;;;;;;;;;1718082;28;20245;-72
2022/01/17 01:17:36;;;;;;;0.00;0.00;;;;;;;;;;1717274;28;20213;-72
2022/01/17 01:18:39;;;;;;;0.20;0.20;;;;;;;;;;1718061;28;20622;-72
2022/01/17 01:19:39;;;;;;;0.10;0.10;;;;;;;;;;1718424;28;20598;-71
2022/01/17 01:20:54;;;;;;;0.00;0.00;;;;;;;;;;1716455;28;20217;-71
2022/01/17 01:21:58;;;;;;;0.00;0.00;;;;;;;;;;1716686;28;20362;-71
2022/01/17 01:27:50;;;;;;;0.00;0.00;;;;;;;;;;1718366;28;20200;-71
2022/01/17 01:28:41;;;;;;;0.22;0.22;;;;;;;;;;1712985;28;20562;-71
2022/01/17 01:29:34;;;;;;;0.00;0.00;;;;;;;;;;1717332;28;20205;-71
2022/01/17 01:30:28;;;;;;;0.05;0.05;;;;;;;;;;1716773;28;20212;-72
2022/01/17 01:31:31;;;;;;;0.05;0.05;;;;;;;;;;1718646;28;20288;-72
2022/01/17 01:32:26;;;;;;;0.00;0.00;;;;;;;;;;1717969;28;20272;-72
2022/01/17 01:33:26;;;;;;;0.10;0.10;;;;;;;;;;1719214;28;20271;-72
2022/01/17 01:34:19;;;;;;;0.00;0.00;;;;;;;;;;1718121;28;20209;-72
2022/01/17 01:35:17;;;;;;;0.10;0.10;;;;;;;;;;1718082;28;20205;-72
2022/01/17 01:36:15;;;;;;;0.00;0.00;;;;;;;;;;1716653;28;20590;-71
2022/01/17 01:37:06;;;;;;;0.10;0.10;;;;;;;;;;1718483;28;20231;-71
2022/01/17 01:38:00;;;;;;;0.00;0.00;;;;;;;;;;1718461;28;20595;-71
2022/01/17 01:38:52;;;;;;;0.13;0.13;;;;;;;;;;1717952;28;20205;-71
2022/01/17 01:39:46;;;;;;;0.10;0.10;;;;;;;;;;1718660;28;20671;-71
2022/01/17 01:40:37;;;;;;;0.00;0.00;;;;;;;;;;1716391;28;20365;-71
2022/01/17 01:41:29;;;;;;;0.03;0.03;;;;;;;;;;1718010;28;20236;-71
2022/01/17 01:42:22;;;;;;;0.00;0.00;;;;;;;;;;1717758;28;20217;-71
2022/01/17 01:43:14;;;;;;;0.10;0.10;;;;;;;;;;1717741;28;20229;-71
2022/01/17 01:44:10;;;;;;;0.03;0.03;;;;;;;;;;1717773;28;20235;-71
2022/01/17 01:45:05;;;;;;;0.00;0.00;;;;;;;;;;1719079;28;20679;-71
2022/01/17 01:45:59;;;;;;;0.10;0.10;;;;;;;;;;1715258;28;20328;-72
2022/01/17 01:46:53;;;;;;;0.00;0.00;;;;;;;;;;1719253;28;20205;-72
2022/01/17 01:47:44;;;;;;;0.00;0.00;;;;;;;;;;1717481;28;20208;-72
2022/01/17 01:48:37;;;;;;;0.00;0.00;;;;;;;;;;1718780;28;20709;-72
2022/01/17 01:49:28;;;;;;;0.00;0.00;;;;;;;;;;1717288;28;20205;-71
2022/01/17 01:50:22;;;;;;;0.00;0.00;;;;;;;;;;1717002;28;20304;-72
2022/01/17 01:51:14;;;;;;;0.00;0.00;;;;;;;;;;1725115;28;20665;-71
2022/01/17 01:52:07;;;;;;;0.00;0.00;;;;;;;;;;1724906;28;20227;-71
2022/01/17 01:52:59;;;;;;;0.00;0.00;;;;;;;;;;1725173;28;20200;-71
2022/01/17 01:53:50;;;;;;;0.00;0.00;;;;;;;;;;1723414;28;20208;-71
2022/01/17 01:54:42;;;;;;;0.10;0.10;;;;;;;;;;1725119;28;20200;-71
2022/01/17 01:55:34;;;;;;;0.30;0.30;;;;;;;;;;1722946;28;20271;-72
2022/01/17 01:56:26;;;;;;;0.00;0.00;;;;;;;;;;1725602;28;20215;-72
2022/01/17 01:57:18;;;;;;;0.00;0.00;;;;;;;;;;1724909;28;20207;-72
2022/01/17 01:58:10;;;;;;;0.10;0.10;;;;;;;;;;1725711;28;20540;-71
2022/01/17 01:59:02;;;;;;;0.00;0.00;;;;;;;;;;1724614;28;20208;-72
2022/01/17 01:59:54;;;;;;;0.10;0.10;;;;;;;;;;1724451;28;20627;-72
2022/01/17 02:00:45;;;;;;;0.00;0.00;;;;;;;;;;1722209;28;20236;-72
2022/01/17 02:01:37;;;;;;;0.00;0.00;;;;;;;;;;1724504;28;20581;-72
2022/01/17 02:02:29;;;;;;;0.10;0.10;;;;;;;;;;1724936;28;20216;-72
2022/01/17 02:03:21;;;;;;;0.10;0.10;;;;;;;;;;1725696;28;20681;-72
2022/01/17 02:04:15;;;;;;;0.00;0.00;;;;;;;;;;1725289;28;20393;-71
2022/01/17 02:05:08;;;;;;;0.08;0.08;;;;;;;;;;1724072;28;20208;-71
2022/01/17 02:05:59;;;;;;;0.10;0.10;;;;;;;;;;1715640;28;20674;-72
2022/01/17 02:06:52;;;;;;;0.00;0.00;;;;;;;;;;1714379;28;20474;-72
2022/01/17 02:07:44;;;;;;;0.00;0.00;;;;;;;;;;1718284;28;20211;-71
2022/01/17 02:08:36;;;;;;;0.00;0.00;;;;;;;;;;1718940;28;20259;-71
2022/01/17 02:09:27;;;;;;;0.10;0.10;;;;;;;;;;1717923;28;20279;-72
2022/01/17 02:10:20;;;;;;;0.00;0.00;;;;;;;;;;1717412;28;20205;-72
2022/01/17 02:11:11;;;;;;;0.10;0.10;;;;;;;;;;1717396;28;20594;-72
2022/01/17 02:12:03;;;;;;;0.10;0.10;;;;;;;;;;1717847;28;20228;-72
2022/01/17 02:12:55;;;;;;;0.00;0.00;;;;;;;;;;1718861;28;20559;-72
2022/01/17 02:13:47;;;;;;;0.00;0.00;;;;;;;;;;1718694;28;20201;-71
2022/01/17 02:14:38;;;;;;;0.08;0.08;;;;;;;;;;1719136;28;20208;-72
2022/01/17 02:15:30;;;;;;;0.10;0.10;;;;;;;;;;1716126;28;20252;-72
2022/01/17 02:16:22;;;;;;;0.00;0.00;;;;;;;;;;1716900;28;20206;-72
2022/01/17 02:17:15;;;;;;;0.00;0.00;;;;;;;;;;1718262;28;20205;-72
2022/01/17 02:18:08;;;;;;;0.10;0.10;;;;;;;;;;1716335;28;20213;-71
2022/01/17 02:19:00;;;;;;;0.00;0.00;;;;;;;;;;1718508;28;20212;-72
2022/01/17 02:20:04;;;;;;;0.00;0.00;;;;;;;;;;1717169;28;20212;-72
2022/01/17 02:21:11;;;;;;;0.10;0.10;;;;;;;;;;1722820;28;20243;-72
2022/01/17 02:22:02;;;;;;;0.10;0.10;;;;;;;;;;1725069;28;20211;-72
2022/01/17 02:22:55;;;;;;;0.00;0.00;;;;;;;;;;1725836;28;20642;-71
2022/01/17 02:23:47;;;;;;;0.10;0.10;;;;;;;;;;1724920;28;20215;-71
2022/01/17 02:24:39;;;;;;;0.00;0.00;;;;;;;;;;1725466;28;20204;-71
2022/01/17 02:25:30;;;;;;;0.10;0.10;;;;;;;;;;1723198;28;20242;-71
2022/01/17 02:26:22;;;;;;;0.10;0.10;;;;;;;;;;1725669;28;20666;-72
2022/01/17 02:27:14;;;;;;;0.00;0.00;;;;;;;;;;1725089;28;20216;-71
2022/01/17 02:28:06;;;;;;;0.10;0.10;;;;;;;;;;1725753;28;20204;-71
2022/01/17 02:28:58;;;;;;;0.10;0.10;;;;;;;;;;1725076;28;20208;-71
2022/01/17 02:29:50;;;;;;;0.10;0.10;;;;;;;;;;1724972;28;20641;-71
2022/01/17 02:30:41;;;;;;;0.00;0.00;;;;;;;;;;1722781;28;20326;-71
2022/01/17 02:31:34;;;;;;;0.05;0.05;;;;;;;;;;1725919;28;20232;-72
2022/01/17 02:32:25;;;;;;;0.15;0.15;;;;;;;;;;1724392;28;20236;-72
2022/01/17 02:33:17;;;;;;;0.10;0.10;;;;;;;;;;1725605;28;20533;-72
2022/01/17 02:34:09;;;;;;;0.10;0.10;;;;;;;;;;1725131;28;20360;-72
2022/01/17 02:35:16;;;;;;;0.00;0.00;;;;;;;;;;1725788;28;20611;-72
2022/01/17 02:36:07;;;;;;;0.00;0.00;;;;;;;;;;1721759;28;20686;-72
2022/01/17 02:36:59;;;;;;;0.00;0.00;;;;;;;;;;1725280;28;20235;-71
2022/01/17 02:37:51;;;;;;;0.00;0.00;;;;;;;;;;1725012;28;20204;-71
2022/01/17 02:38:43;;;;;;;0.00;0.00;;;;;;;;;;1725160;28;20204;-71
2022/01/17 02:39:35;;;;;;;0.00;0.00;;;;;;;;;;1724844;28;20208;-72
2022/01/17 02:40:27;;;;;;;0.00;0.00;;;;;;;;;;1723174;28;20204;-72
2022/01/17 02:41:18;;;;;;;0.00;0.00;;;;;;;;;;1725538;28;20266;-72
2022/01/17 02:42:15;;;;;;;0.00;0.00;;;;;;;;;;1724099;28;20652;-72
2022/01/17 02:43:07;;;;;;;0.00;0.00;;;;;;;;;;1725488;28;20204;-72
2022/01/17 02:44:01;;;;;;;0.10;0.10;;;;;;;;;;1724924;28;20257;-72
2022/01/17 02:44:55;;;;;;;0.10;0.10;;;;;;;;;;1726519;28;20291;-71
2022/01/17 02:47:02;;;;;;;0.05;0.05;;;;;;;;;;1700757;28;20482;-71
2022/01/17 02:47:54;;;;;;;0.03;0.03;;;;;;;;;;1726577;28;20628;-71
2022/01/17 02:48:46;;;;;;;0.08;0.08;;;;;;;;;;1725911;28;20742;-71
2022/01/17 02:49:38;;;;;;;0.00;0.00;;;;;;;;;;1726574;28;20215;-71
2022/01/17 02:50:31;;;;;;;0.00;0.00;;;;;;;;;;1724383;28;20236;-72
2022/01/17 02:51:23;;;;;;;0.00;0.00;;;;;;;;;;1727072;28;20212;-72
2022/01/17 02:52:14;;;;;;;0.00;0.00;;;;;;;;;;1725918;28;20227;-71
2022/01/17 02:53:08;;;;;;;0.00;0.00;;;;;;;;;;1726236;28;20629;-72
2022/01/17 02:53:59;;;;;;;0.00;0.00;;;;;;;;;;1726010;28;20560;-72
2022/01/17 02:54:51;;;;;;;0.10;0.10;;;;;;;;;;1726107;28;20207;-72
2022/01/17 02:55:44;;;;;;;0.00;0.00;;;;;;;;;;1723849;28;20239;-72
2022/01/17 02:56:37;;;;;;;0.00;0.00;;;;;;;;;;1726949;28;20668;-71
2022/01/17 02:57:28;;;;;;;0.10;0.10;;;;;;;;;;1727045;28;20536;-71
2022/01/17 02:58:22;;;;;;;0.00;0.00;;;;;;;;;;1727592;28;20492;-72
2022/01/17 02:59:14;;;;;;;0.00;0.00;;;;;;;;;;1725808;28;20204;-72
2022/01/17 03:00:10;;;;;;;0.00;0.00;;;;;;;;;;1724786;28;20226;-71
2022/01/17 03:01:06;;;;;;;0.00;0.00;;;;;;;;;;1717385;28;20239;-71
2022/01/17 03:01:59;;;;;;;0.00;0.00;;;;;;;;;;1719665;28;20228;-71
2022/01/17 03:02:50;;;;;;;0.03;0.03;;;;;;;;;;1721029;28;20232;-71
2022/01/17 03:03:42;;;;;;;0.08;0.08;;;;;;;;;;1719782;28;20208;-71
2022/01/17 03:04:34;;;;;;;0.00;0.00;;;;;;;;;;1721608;28;20219;-71
2022/01/17 03:05:26;;;;;;;0.00;0.00;;;;;;;;;;1719269;28;20533;-71
2022/01/17 03:06:20;;;;;;;0.00;0.00;;;;;;;;;;1725764;28;20232;-71
2022/01/17 03:07:12;;;;;;;0.00;0.00;;;;;;;;;;1725251;28;20633;-71
2022/01/17 03:08:03;;;;;;;0.00;0.00;;;;;;;;;;1726698;28;20205;-71
2022/01/17 03:08:56;;;;;;;0.00;0.00;;;;;;;;;;1726200;28;20768;-71
2022/01/17 03:10:01;;;;;;;0.00;0.00;;;;;;;;;;1726235;28;20215;-71
2022/01/17 03:10:54;;;;;;;0.10;0.10;;;;;;;;;;1717465;28;20238;-71
2022/01/17 03:11:47;;;;;;;0.10;0.10;;;;;;;;;;1719570;28;20520;-71
2022/01/17 03:12:38;;;;;;;0.10;0.10;;;;;;;;;;1718809;28;20213;-71
2022/01/17 03:13:32;;;;;;;0.00;0.00;;;;;;;;;;1719258;28;20211;-71
2022/01/17 03:14:23;;;;;;;0.00;0.00;;;;;;;;;;1718206;28;20622;-71
2022/01/17 03:15:15;;;;;;;0.00;0.00;;;;;;;;;;1718037;28;20205;-72
2022/01/17 03:16:09;;;;;;;0.08;0.08;;;;;;;;;;1717984;28;20245;-72
2022/01/17 03:17:01;;;;;;;0.10;0.10;;;;;;;;;;1719556;28;20207;-72
2022/01/17 03:17:55;;;;;;;0.03;0.03;;;;;;;;;;1719356;28;20208;-72
2022/01/17 03:18:50;;;;;;;0.10;0.10;;;;;;;;;;1719238;28;20812;-71
2022/01/17 03:19:41;;;;;;;0.00;0.00;;;;;;;;;;1718664;28;20826;-72
2022/01/17 03:20:34;;;;;;;0.00;0.00;;;;;;;;;;1716829;28;20233;-72
2022/01/17 03:21:32;;;;;;;0.03;0.03;;;;;;;;;;1719610;28;20239;-71
2022/01/17 03:22:23;;;;;;;0.00;0.00;;;;;;;;;;1718952;28;20630;-72
2022/01/17 03:23:15;;;;;;;0.10;0.10;;;;;;;;;;1719940;28;20205;-72
2022/01/17 03:24:07;;;;;;;0.10;0.10;;;;;;;;;;1719157;28;20243;-72
2022/01/17 03:24:59;;;;;;;0.10;0.10;;;;;;;;;;1719469;28;20201;-71
2022/01/17 03:25:50;;;;;;;0.10;0.10;;;;;;;;;;1716617;28;20236;-71
2022/01/17 03:26:42;;;;;;;0.10;0.10;;;;;;;;;;1719283;28;20291;-72
2022/01/17 03:27:34;;;;;;;0.00;0.00;;;;;;;;;;1719415;28;20216;-72
2022/01/17 03:28:26;;;;;;;0.00;0.00;;;;;;;;;;1719833;28;20232;-72
2022/01/17 03:29:18;;;;;;;0.00;0.00;;;;;;;;;;1718909;28;20579;-72
2022/01/17 03:30:13;;;;;;;0.03;0.03;;;;;;;;;;1719286;28;20223;-72
2022/01/17 03:31:05;;;;;;;0.10;0.10;;;;;;;;;;1723862;28;20228;-72
2022/01/17 03:31:57;;;;;;;0.00;0.00;;;;;;;;;;1730108;28;20219;-72
2022/01/17 03:32:49;;;;;;;0.10;0.10;;;;;;;;;;1725499;28;20466;-72
2022/01/17 03:33:41;;;;;;;0.10;0.10;;;;;;;;;;1726289;28;20577;-72
2022/01/17 03:34:32;;;;;;;0.10;0.10;;;;;;;;;;1725860;28;20212;-72
2022/01/17 03:35:25;;;;;;;0.00;0.00;;;;;;;;;;1724069;28;20295;-72
2022/01/17 03:36:16;;;;;;;0.00;0.00;;;;;;;;;;1726220;28;20219;-72
2022/01/17 03:37:09;;;;;;;0.00;0.00;;;;;;;;;;1725212;28;20208;-72
2022/01/17 03:38:01;;;;;;;0.00;0.00;;;;;;;;;;1725709;28;20204;-71
2022/01/17 03:38:54;;;;;;;0.00;0.00;;;;;;;;;;1725765;28;20299;-72
2022/01/17 03:39:45;;;;;;;0.10;0.10;;;;;;;;;;1726062;28;20744;-72
2022/01/17 03:40:38;;;;;;;0.00;0.00;;;;;;;;;;1723559;28;20231;-72
2022/01/17 03:41:30;;;;;;;0.10;0.10;;;;;;;;;;1726568;28;20204;-72
2022/01/17 03:42:23;;;;;;;0.10;0.10;;;;;;;;;;1725041;28;20212;-71
2022/01/17 03:43:15;;;;;;;0.00;0.00;;;;;;;;;;1725428;28;20204;-71
2022/01/17 03:44:07;;;;;;;0.00;0.00;;;;;;;;;;1724682;28;20213;-71
2022/01/17 03:45:00;;;;;;;0.00;0.00;;;;;;;;;;1726299;28;20347;-71
2022/01/17 03:45:52;;;;;;;0.10;0.10;;;;;;;;;;1723597;28;20566;-71
2022/01/17 03:46:44;;;;;;;0.00;0.00;;;;;;;;;;1726583;28;20235;-71
2022/01/17 03:47:35;;;;;;;0.00;0.00;;;;;;;;;;1725587;28;20223;-71
2022/01/17 03:48:28;;;;;;;0.00;0.00;;;;;;;;;;1727118;28;20216;-71
2022/01/17 03:49:19;;;;;;;0.03;0.03;;;;;;;;;;1725494;28;20669;-71
2022/01/17 03:50:15;;;;;;;0.10;0.10;;;;;;;;;;1725370;28;20282;-71
2022/01/17 03:51:08;;;;;;;0.00;0.00;;;;;;;;;;1724174;28;20570;-70
2022/01/17 03:51:59;;;;;;;0.08;0.08;;;;;;;;;;1726110;28;20204;-72
2022/01/17 03:52:52;;;;;;;0.00;0.00;;;;;;;;;;1707882;28;20469;-72
2022/01/17 03:53:44;;;;;;;0.00;0.00;;;;;;;;;;1706582;28;20202;-71
2022/01/17 03:54:36;;;;;;;0.03;0.03;;;;;;;;;;1707535;28;20346;-72
2022/01/17 03:55:28;;;;;;;0.00;0.00;;;;;;;;;;1706112;28;20242;-72
2022/01/17 03:56:20;;;;;;;0.00;0.00;;;;;;;;;;1706567;28;20529;-71
2022/01/17 03:57:11;;;;;;;0.10;0.10;;;;;;;;;;1708565;28;20276;-71
2022/01/17 03:58:04;;;;;;;0.00;0.00;;;;;;;;;;1707822;28;20226;-72
2022/01/17 03:58:55;;;;;;;0.00;0.00;;;;;;;;;;1708489;28;20252;-72
2022/01/17 03:59:47;;;;;;;0.05;0.05;;;;;;;;;;1710130;28;20301;-72
2022/01/17 04:00:43;;;;;;;0.10;0.10;;;;;;;;;;1709799;28;20521;-72
2022/01/17 04:01:38;;;;;;;0.00;0.00;;;;;;;;;;1706173;28;20234;-71
2022/01/17 04:02:29;;;;;;;0.00;0.00;;;;;;;;;;1709065;28;20210;-71
2022/01/17 04:03:21;;;;;;;0.20;0.20;;;;;;;;;;1706501;28;20230;-71
2022/01/17 04:04:12;;;;;;;0.00;0.00;;;;;;;;;;1708987;28;20210;-71
2022/01/17 04:05:05;;;;;;;0.00;0.00;;;;;;;;;;1706335;28;20234;-71
2022/01/17 04:05:57;;;;;;;0.00;0.00;;;;;;;;;;1705846;28;20237;-71
2022/01/17 04:06:48;;;;;;;0.00;0.00;;;;;;;;;;1706373;29;20210;-71
2022/01/17 04:07:40;;;;;;;0.00;0.00;;;;;;;;;;1708352;28;20312;-71
2022/01/17 04:08:35;;;;;;;0.10;0.10;;;;;;;;;;1706181;29;20213;-72
2022/01/17 04:09:26;;;;;;;0.05;0.05;;;;;;;;;;1708701;28;20695;-72
2022/01/17 04:10:18;;;;;;;0.10;0.10;;;;;;;;;;1705097;28;20526;-71
2022/01/17 04:11:10;;;;;;;0.10;0.10;;;;;;;;;;1708332;28;20242;-71
2022/01/17 04:12:02;;;;;;;0.00;0.00;;;;;;;;;;1706623;28;20203;-71
2022/01/17 04:12:55;;;;;;;0.10;0.10;;;;;;;;;;1708333;28;20210;-71
2022/01/17 04:13:48;;;;;;;0.17;0.17;;;;;;;;;;1707636;28;20198;-71
2022/01/17 04:14:39;;;;;;;0.00;0.00;;;;;;;;;;1710332;28;20206;-71
2022/01/17 04:15:32;;;;;;;0.10;0.10;;;;;;;;;;1710757;28;20274;-72
2022/01/17 04:16:24;;;;;;;0.00;0.00;;;;;;;;;;1706113;28;20210;-71
2022/01/17 04:17:16;;;;;;;0.10;0.10;;;;;;;;;;1708932;28;20213;-72
2022/01/17 04:18:09;;;;;;;0.00;0.00;;;;;;;;;;1706605;28;20293;-71
2022/01/17 04:19:01;;;;;;;0.10;0.10;;;;;;;;;;1709170;28;20201;-71
2022/01/17 04:19:59;;;;;;;0.10;0.10;;;;;;;;;;1710410;28;20240;-71
2022/01/17 04:20:52;;;;;;;0.00;0.00;;;;;;;;;;1708550;28;20321;-71
2022/01/17 04:21:45;;;;;;;0.10;0.10;;;;;;;;;;1705857;28;20202;-71
2022/01/17 04:22:42;;;;;;;0.00;0.00;;;;;;;;;;1710636;28;20702;-71
2022/01/17 04:23:35;;;;;;;0.00;0.00;;;;;;;;;;1713170;28;20581;-71
2022/01/17 04:24:27;;;;;;;0.00;0.00;;;;;;;;;;1710677;28;20222;-71
2022/01/17 04:25:18;;;;;;;0.00;0.00;;;;;;;;;;1711248;28;20213;-72
2022/01/17 04:26:10;;;;;;;0.00;0.00;;;;;;;;;;1706890;28;20262;-71
2022/01/17 04:27:02;;;;;;;0.00;0.00;;;;;;;;;;1706533;28;20238;-71
2022/01/17 04:27:54;;;;;;;0.00;0.00;;;;;;;;;;1707437;28;20234;-71
2022/01/17 04:28:45;;;;;;;0.10;0.10;;;;;;;;;;1708099;28;20217;-71
2022/01/17 04:29:39;;;;;;;0.00;0.00;;;;;;;;;;1708883;28;20293;-71
2022/01/17 04:30:30;;;;;;;0.00;0.00;;;;;;;;;;1708348;28;20237;-71
2022/01/17 04:31:22;;;;;;;0.00;0.00;;;;;;;;;;1699921;28;20211;-71
2022/01/17 04:32:13;;;;;;;0.10;0.10;;;;;;;;;;1700708;28;20608;-71
2022/01/17 04:33:06;;;;;;;0.10;0.10;;;;;;;;;;1700138;29;20225;-71
2022/01/17 04:33:57;;;;;;;0.00;0.00;;;;;;;;;;1702390;28;20544;-71
2022/01/17 04:34:49;;;;;;;0.00;0.00;;;;;;;;;;1699732;29;20301;-71
2022/01/17 04:35:43;;;;;;;0.00;0.00;;;;;;;;;;1705250;28;20295;-71
2022/01/17 04:36:35;;;;;;;0.00;0.00;;;;;;;;;;1711032;28;20212;-71
2022/01/17 04:37:26;;;;;;;0.00;0.00;;;;;;;;;;1711345;28;20771;-71
2022/01/17 04:38:19;;;;;;;0.00;0.00;;;;;;;;;;1705442;29;20592;-71
2022/01/17 04:39:16;;;;;;;0.00;0.00;;;;;;;;;;1708868;28;20543;-71
2022/01/17 04:40:10;;;;;;;0.00;0.00;;;;;;;;;;1705586;28;20664;-72
2022/01/17 04:41:03;;;;;;;0.00;0.00;;;;;;;;;;1707756;28;20325;-71
2022/01/17 04:41:57;;;;;;;0.00;0.00;;;;;;;;;;1712118;28;20276;-71
2022/01/17 04:42:49;;;;;;;0.00;0.00;;;;;;;;;;1708221;28;20207;-71
2022/01/17 04:43:57;;;;;;;0.00;0.00;;;;;;;;;;1706426;28;20753;-71
2022/01/17 04:45:59;;;;;;;0.10;0.10;;;;;;;;;;1708029;28;20640;-71
2022/01/17 04:46:50;;;;;;;0.17;0.17;;;;;;;;;;1706046;29;20214;-71
2022/01/17 04:47:43;;;;;;;0.00;0.00;;;;;;;;;;1708541;28;20221;-71
2022/01/17 04:48:35;;;;;;;0.10;0.10;;;;;;;;;;1706143;29;20213;-71
2022/01/17 04:49:26;;;;;;;0.00;0.00;;;;;;;;;;1708087;28;20215;-71
2022/01/17 04:50:20;;;;;;;0.20;0.20;;;;;;;;;;1704397;28;20244;-71
2022/01/17 04:51:11;;;;;;;0.00;0.00;;;;;;;;;;1700551;28;20235;-71
2022/01/17 04:52:03;;;;;;;0.00;0.00;;;;;;;;;;1700274;28;20204;-71
2022/01/17 04:52:57;;;;;;;0.00;0.00;;;;;;;;;;1718512;28;20213;-71
2022/01/17 04:54:07;;;;;;;0.00;0.00;;;;;;;;;;1717662;28;20867;-71
2022/01/17 04:55:02;;;;;;;0.20;0.20;;;;;;;;;;1719205;28;20210;-71
2022/01/17 04:55:54;;;;;;;0.10;0.10;;;;;;;;;;1715909;28;20598;-71
2022/01/17 04:56:45;;;;;;;0.10;0.10;;;;;;;;;;1714994;28;20247;-71
2022/01/17 04:57:38;;;;;;;0.10;0.10;;;;;;;;;;1718573;28;20207;-71
2022/01/17 04:58:30;;;;;;;0.10;0.10;;;;;;;;;;1718896;28;20662;-71
2022/01/17 04:59:21;;;;;;;0.03;0.03;;;;;;;;;;1718062;28;20205;-71
2022/01/17 05:00:15;;;;;;;0.10;0.10;;;;;;;;;;1717028;28;20679;-71
2022/01/17 05:01:06;;;;;;;0.00;0.00;;;;;;;;;;1716142;28;20241;-71
2022/01/17 05:01:58;;;;;;;0.00;0.00;;;;;;;;;;1718579;28;20212;-71
2022/01/17 05:02:50;;;;;;;0.00;0.00;;;;;;;;;;1717908;28;20205;-71
2022/01/17 05:03:42;;;;;;;0.00;0.00;;;;;;;;;;1718828;28;20205;-71
2022/01/17 05:04:34;;;;;;;0.10;0.10;;;;;;;;;;1718528;28;20648;-71
2022/01/17 05:05:26;;;;;;;0.10;0.10;;;;;;;;;;1716883;28;20220;-71
2022/01/17 05:06:17;;;;;;;0.00;0.00;;;;;;;;;;1718297;28;20237;-71
2022/01/17 05:07:10;;;;;;;0.00;0.00;;;;;;;;;;1718552;28;20215;-71
2022/01/17 05:08:02;;;;;;;0.00;0.00;;;;;;;;;;1718701;28;20601;-71
2022/01/17 05:08:53;;;;;;;0.00;0.00;;;;;;;;;;1717668;28;20205;-71
2022/01/17 05:09:46;;;;;;;0.00;0.00;;;;;;;;;;1718616;28;20201;-71
2022/01/17 05:10:39;;;;;;;0.00;0.00;;;;;;;;;;1716257;28;20260;-72
2022/01/17 05:11:31;;;;;;;0.00;0.00;;;;;;;;;;1717169;28;20220;-72
2022/01/17 05:12:23;;;;;;;0.10;0.10;;;;;;;;;;1717943;28;20230;-72
2022/01/17 05:13:20;;;;;;;0.10;0.10;;;;;;;;;;1719270;28;20209;-72
2022/01/17 05:14:11;;;;;;;0.10;0.10;;;;;;;;;;1717717;28;20247;-71
2022/01/17 05:15:04;;;;;;;0.00;0.00;;;;;;;;;;1718228;28;20522;-71
2022/01/17 05:16:06;;;;;;;0.03;0.03;;;;;;;;;;1716263;28;20737;-72
2022/01/17 05:17:04;;;;;;;0.00;0.00;;;;;;;;;;1718969;28;20672;-72
2022/01/17 05:18:01;;;;;;;0.10;0.10;;;;;;;;;;1718697;28;20197;-72
2022/01/17 05:20:02;;;;;;;0.00;0.00;;;;;;;;;;1718553;28;20580;-71
2022/01/17 05:20:54;;;;;;;0.00;0.00;;;;;;;;;;1715183;28;20814;-71
2022/01/17 05:21:45;;;;;;;0.00;0.00;;;;;;;;;;1718896;28;20204;-71
2022/01/17 05:22:39;;;;;;;0.00;0.00;;;;;;;;;;1718114;28;20532;-71
2022/01/17 05:23:30;;;;;;;0.03;0.03;;;;;;;;;;1719008;28;20647;-71
2022/01/17 05:24:22;;;;;;;0.10;0.10;;;;;;;;;;1718307;28;20233;-71
2022/01/17 05:25:13;;;;;;;0.08;0.08;;;;;;;;;;1717374;28;20232;-71
2022/01/17 05:26:07;;;;;;;0.05;0.05;;;;;;;;;;1717472;28;20633;-71
2022/01/17 05:26:58;;;;;;;0.20;0.20;;;;;;;;;;1717831;28;20216;-71
2022/01/17 05:27:50;;;;;;;0.00;0.00;;;;;;;;;;1718150;28;20230;-71